nws-alerts: Checking more than four warning/county codes can delay the loading of your pages. You should use a cron job to get the data.
EllijayWeather Station Historical Data
Daily Summary for April 7, 2019 Units:  English    Metric   Both
Daily Weekly Monthly Yearly Custom
  High: Low: Average:
Temperature: 76.3 °F 56.8 °F 65.7 °F
Dew Point: 64.6 °F 54.7 °F 60.2 °F
Humidity: 100% 59% 84%
Wind Speed: 4.9mph 0.0mph 0.1mph
Wind Gust: 6.0mph - -
Wind- - ESE
Pressure: 30.22 in 30.06 in -
Precipitation: 0.25 in    
Historical Graphs
 
 
Tabular Data for April 7, 2019
Time Temperature Dew Point Pressure Wind Wind Speed Wind Gust Humidity Rainfall Rate (Hourly) solar
00:04 58.1 °F 56.3 °F 30.18 in Calm     94% 0.00 in meteobridge W/m2
00:09 58.3 °F 55.9 °F 30.19 in Calm     92% 0.00 in meteobridge W/m2
00:14 58.1 °F 55.8 °F 30.19 in Calm     92% 0.00 in meteobridge W/m2
00:19 57.9 °F 55.6 °F 30.19 in Calm     92% 0.00 in meteobridge W/m2
00:24 57.7 °F 55.2 °F 30.18 in Calm     91% 0.00 in meteobridge W/m2
00:29 57.6 °F 54.7 °F 30.19 in Calm     90% 0.00 in meteobridge W/m2
00:34 57.4 °F 55.0 °F 30.19 in Calm     92% 0.00 in meteobridge W/m2
00:39 57.2 °F 54.9 °F 30.19 in Calm     92% 0.00 in meteobridge W/m2
00:44 57.2 °F 55.2 °F 30.19 in Calm     93% 0.00 in meteobridge W/m2
00:49 57.0 °F 54.7 °F 30.18 in Calm     92% 0.00 in meteobridge W/m2
00:54 57.0 °F 55.0 °F 30.18 in Calm     93% 0.00 in meteobridge W/m2
00:59 56.8 °F 54.9 °F 30.19 in Calm     93% 0.00 in meteobridge W/m2
01:04 56.8 °F 54.9 °F 30.19 in Calm     93% 0.00 in meteobridge W/m2
01:09 56.8 °F 55.2 °F 30.18 in Calm     94% 0.00 in meteobridge W/m2
01:14 56.8 °F 54.9 °F 30.19 in Calm     93% 0.00 in meteobridge W/m2
01:19 56.8 °F 55.2 °F 30.19 in Calm     94% 0.00 in meteobridge W/m2
01:24 57.0 °F 55.2 °F 30.19 in Calm     94% 0.00 in meteobridge W/m2
01:29 57.0 °F 55.2 °F 30.18 in Calm     94% 0.00 in meteobridge W/m2
01:34 57.0 °F 55.0 °F 30.18 in Calm     93% 0.00 in meteobridge W/m2
01:39 57.0 °F 55.2 °F 30.18 in Calm     94% 0.00 in meteobridge W/m2
01:44 57.2 °F 55.4 °F 30.19 in Calm     94% 0.00 in meteobridge W/m2
01:49 57.6 °F 56.1 °F 30.20 in Calm     95% 0.00 in meteobridge W/m2
01:54 57.9 °F 56.5 °F 30.21 in Calm     95% 0.00 in meteobridge W/m2
01:59 58.1 °F 57.6 °F 30.20 in Calm     98% 0.00 in meteobridge W/m2
02:04 57.9 °F 55.6 °F 30.19 in Calm     92% 0.00 in meteobridge W/m2
02:09 57.6 °F 56.1 °F 30.18 in Calm     95% 0.00 in meteobridge W/m2
02:14 57.7 °F 56.7 °F 30.18 in Calm     96% 0.00 in meteobridge W/m2
02:19 57.9 °F 57.0 °F 30.18 in Calm     97% 0.00 in meteobridge W/m2
02:24 57.9 °F 56.8 °F 30.19 in Calm     96% 0.01 in meteobridge W/m2
02:29 58.5 °F 57.6 °F 30.18 in Calm     97% 0.01 in meteobridge W/m2
02:34 58.8 °F 58.3 °F 30.18 in Calm     98% 0.03 in meteobridge W/m2
02:39 59.2 °F 58.6 °F 30.18 in Calm     98% 0.05 in meteobridge W/m2
02:44 59.4 °F 58.8 °F 30.18 in Calm     98% 0.06 in meteobridge W/m2
02:49 59.4 °F 58.5 °F 30.18 in Calm     97% 0.06 in meteobridge W/m2
02:54 59.2 °F 58.3 °F 30.18 in Calm     97% 0.07 in meteobridge W/m2
02:59 59.2 °F 58.3 °F 30.18 in Calm     97% 0.07 in meteobridge W/m2
03:04 59.2 °F 58.3 °F 30.18 in Calm     97% 0.08 in meteobridge W/m2
03:09 59.2 °F 58.3 °F 30.18 in Calm     97% 0.08 in meteobridge W/m2
03:14 59.4 °F 58.8 °F 30.18 in Calm     98% 0.09 in meteobridge W/m2
03:19 59.5 °F 59.0 °F 30.18 in Calm     98% 0.09 in meteobridge W/m2
03:24 59.4 °F 58.5 °F 30.18 in Calm     97% 0.08 in meteobridge W/m2
03:29 59.4 °F 58.5 °F 30.19 in Calm     97% 0.09 in meteobridge W/m2
03:34 59.4 °F 58.5 °F 30.19 in Calm     97% 0.08 in meteobridge W/m2
03:39 59.4 °F 58.5 °F 30.19 in Calm     97% 0.06 in meteobridge W/m2
03:44 59.4 °F 58.8 °F 30.19 in Calm     98% 0.06 in meteobridge W/m2
03:49 59.4 °F 58.8 °F 30.20 in Calm     98% 0.06 in meteobridge W/m2
03:54 59.4 °F 58.8 °F 30.19 in Calm     98% 0.06 in meteobridge W/m2
03:59 59.4 °F 58.8 °F 30.20 in Calm     98% 0.07 in meteobridge W/m2
04:04 59.4 °F 58.8 °F 30.20 in Calm     98% 0.07 in meteobridge W/m2
04:09 59.4 °F 58.8 °F 30.20 in Calm     98% 0.08 in meteobridge W/m2
04:14 59.4 °F 58.8 °F 30.20 in Calm     98% 0.09 in meteobridge W/m2
04:19 59.4 °F 58.8 °F 30.20 in Calm     98% 0.10 in meteobridge W/m2
04:24 59.4 °F 58.8 °F 30.21 in Calm     98% 0.11 in meteobridge W/m2
04:29 59.4 °F 58.8 °F 30.21 in Calm     98% 0.11 in meteobridge W/m2
04:34 59.4 °F 58.8 °F 30.20 in Calm     98% 0.11 in meteobridge W/m2
04:39 59.4 °F 58.8 °F 30.21 in Calm     98% 0.11 in meteobridge W/m2
04:44 59.4 °F 58.8 °F 30.21 in Calm     98% 0.11 in meteobridge W/m2
04:49 59.4 °F 58.8 °F 30.21 in Calm     98% 0.11 in meteobridge W/m2
04:54 59.4 °F 58.8 °F 30.21 in Calm     98% 0.10 in meteobridge W/m2
04:59 59.4 °F 58.8 °F 30.22 in Calm     98% 0.09 in meteobridge W/m2
05:04 59.4 °F 58.8 °F 30.22 in Calm     98% 0.08 in meteobridge W/m2
05:09 59.4 °F 58.8 °F 30.22 in Calm     98% 0.07 in meteobridge W/m2
05:14 59.4 °F 58.8 °F 30.22 in Calm     98% 0.05 in meteobridge W/m2
05:19 59.4 °F 58.8 °F 30.22 in Calm     98% 0.04 in meteobridge W/m2
05:24 59.4 °F 58.8 °F 30.22 in Calm     98% 0.04 in meteobridge W/m2
05:29 59.4 °F 58.8 °F 30.22 in Calm     98% 0.03 in meteobridge W/m2
05:34 59.4 °F 58.8 °F 30.22 in Calm     98% 0.02 in meteobridge W/m2
05:39 59.2 °F 58.6 °F 30.22 in Calm     98% 0.02 in meteobridge W/m2
05:44 59.2 °F 58.6 °F 30.21 in Calm     98% 0.01 in meteobridge W/m2
05:49 59.2 °F 58.6 °F 30.21 in Calm     98% 0.01 in meteobridge W/m2
05:54 59.2 °F 58.6 °F 30.20 in Calm     98% 0.01 in meteobridge W/m2
05:59 59.0 °F 58.5 °F 30.19 in Calm     98% 0.02 in meteobridge W/m2
06:04 59.2 °F 58.6 °F 30.18 in Calm     98% 0.02 in meteobridge W/m2
06:09 58.8 °F 58.3 °F 30.17 in Calm     98% 0.02 in meteobridge W/m2
06:14 58.6 °F 58.1 °F 30.17 in Calm     98% 0.02 in meteobridge W/m2
06:19 58.6 °F 58.1 °F 30.18 in Calm     98% 0.02 in meteobridge W/m2
06:24 58.8 °F 58.3 °F 30.18 in Calm     98% 0.01 in meteobridge W/m2
06:29 58.8 °F 58.3 °F 30.17 in Calm     98% 0.01 in meteobridge W/m2
06:34 58.6 °F 58.1 °F 30.16 in Calm     98% 0.01 in meteobridge W/m2
06:39 58.6 °F 58.1 °F 30.16 in Calm     98% 0.01 in meteobridge W/m2
06:44 58.6 °F 58.1 °F 30.17 in Calm     98% 0.01 in meteobridge W/m2
06:49 58.8 °F 58.3 °F 30.17 in Calm     98% 0.01 in meteobridge W/m2
06:54 58.8 °F 58.8 °F 30.17 in Calm     100% 0.01 in meteobridge W/m2
06:59 58.6 °F 58.1 °F 30.17 in Calm     98% 0.00 in meteobridge W/m2
07:04 58.8 °F 58.8 °F 30.17 in Calm     100% 0.00 in meteobridge W/m2
07:09 58.8 °F 58.5 °F 30.17 in Calm     99% 0.00 in meteobridge W/m2
07:14 58.8 °F 58.3 °F 30.18 in Calm     98% 0.00 in meteobridge W/m2
07:19 58.8 °F 58.5 °F 30.18 in Calm     99% 0.00 in meteobridge W/m2
07:24 58.8 °F 58.3 °F 30.18 in Calm     98% 0.00 in meteobridge W/m2
07:29 58.8 °F 58.8 °F 30.19 in Calm     100% 0.00 in meteobridge W/m2
07:34 58.8 °F 58.5 °F 30.18 in Calm     99% 0.00 in meteobridge W/m2
07:39 58.8 °F 58.8 °F 30.18 in Calm     100% 0.00 in meteobridge W/m2
07:44 58.6 °F 58.1 °F 30.18 in Calm     98% 0.00 in meteobridge W/m2
07:49 58.6 °F 58.1 °F 30.18 in Calm     98% 0.00 in meteobridge W/m2
07:54 58.6 °F 58.1 °F 30.19 in Calm     98% 0.00 in meteobridge W/m2
07:59 58.6 °F 58.1 °F 30.19 in Calm     98% 0.00 in meteobridge W/m2
08:04 58.6 °F 58.1 °F 30.19 in Calm     98% 0.00 in meteobridge W/m2
08:09 58.6 °F 58.1 °F 30.19 in Calm     98% 0.00 in meteobridge W/m2
08:14 58.6 °F 58.1 °F 30.20 in Calm     98% 0.00 in meteobridge W/m2
08:19 58.6 °F 58.1 °F 30.20 in Calm     98% 0.00 in meteobridge W/m2
08:24 58.6 °F 58.1 °F 30.20 in Calm     98% 0.00 in meteobridge W/m2
08:29 58.6 °F 58.1 °F 30.20 in Calm     98% 0.00 in meteobridge W/m2
08:34 58.8 °F 58.3 °F 30.20 in Calm     98% 0.00 in meteobridge W/m2
08:39 58.8 °F 58.5 °F 30.19 in Calm     99% 0.00 in meteobridge W/m2
08:44 58.8 °F 58.5 °F 30.19 in Calm     99% 0.00 in meteobridge W/m2
08:49 58.8 °F 58.5 °F 30.19 in Calm     99% 0.00 in meteobridge W/m2
08:54 58.8 °F 58.5 °F 30.19 in Calm     99% 0.00 in meteobridge W/m2
08:59 59.0 °F 58.6 °F 30.19 in Calm     99% 0.00 in meteobridge W/m2
09:04 59.2 °F 58.8 °F 30.19 in Calm     99% 0.00 in meteobridge W/m2
09:09 59.4 °F 59.0 °F 30.19 in Calm     99% 0.00 in meteobridge W/m2
09:14 59.5 °F 59.2 °F 30.19 in Calm     99% 0.00 in meteobridge W/m2
09:19 60.1 °F 59.7 °F 30.18 in Calm     99% 0.00 in meteobridge W/m2
09:24 60.3 °F 59.9 °F 30.18 in Calm     99% 0.00 in meteobridge W/m2
09:29 60.4 °F 60.1 °F 30.18 in Calm     99% 0.00 in meteobridge W/m2
09:34 60.6 °F 60.3 °F 30.17 in Calm     99% 0.00 in meteobridge W/m2
09:39 60.8 °F 60.4 °F 30.17 in Calm     99% 0.00 in meteobridge W/m2
09:44 61.2 °F 60.8 °F 30.16 in Calm     99% 0.00 in meteobridge W/m2
09:49 61.2 °F 60.8 °F 30.16 in Calm     99% 0.00 in meteobridge W/m2
09:54 61.5 °F 61.2 °F 30.16 in Calm     99% 0.00 in meteobridge W/m2
09:59 61.7 °F 61.3 °F 30.16 in Calm     99% 0.00 in meteobridge W/m2
10:04 62.1 °F 61.7 °F 30.16 in Calm     99% 0.00 in meteobridge W/m2
10:09 62.2 °F 61.9 °F 30.16 in Calm     99% 0.00 in meteobridge W/m2
10:14 62.4 °F 62.1 °F 30.16 in Calm     99% 0.00 in meteobridge W/m2
10:19 62.8 °F 62.4 °F 30.16 in Calm     99% 0.00 in meteobridge W/m2
10:24 63.1 °F 62.8 °F 30.16 in Calm     99% 0.00 in meteobridge W/m2
10:29 63.5 °F 63.1 °F 30.16 in Calm     99% 0.00 in meteobridge W/m2
10:34 63.9 °F 63.0 °F 30.16 in Calm     97% 0.00 in meteobridge W/m2
10:39 64.0 °F 63.1 °F 30.16 in Calm     97% 0.00 in meteobridge W/m2
10:44 64.6 °F 63.5 °F 30.16 in Calm     96% 0.00 in meteobridge W/m2
10:49 64.9 °F 62.8 °F 30.16 in Calm     93% 0.00 in meteobridge W/m2
10:54 65.3 °F 63.0 °F 30.17 in Calm     92% 0.00 in meteobridge W/m2
10:59 65.7 °F 63.3 °F 30.17 in Calm     92% 0.00 in meteobridge W/m2
11:04 65.8 °F 62.8 °F 30.16 in Calm     90% 0.00 in meteobridge W/m2
11:09 66.4 °F 63.7 °F 30.16 in Calm     91% 0.00 in meteobridge W/m2
11:14 66.6 °F 63.1 °F 30.16 in Calm     89% 0.00 in meteobridge W/m2
11:19 66.6 °F 63.5 °F 30.16 in Calm     90% 0.00 in meteobridge W/m2
11:24 66.7 °F 63.7 °F 30.17 in Calm     90% 0.00 in meteobridge W/m2
11:29 67.5 °F 64.0 °F 30.17 in Calm     89% 0.00 in meteobridge W/m2
11:34 67.8 °F 63.9 °F 30.17 in Calm     87% 0.00 in meteobridge W/m2
11:39 68.2 °F 63.9 °F 30.17 in Calm     86% 0.00 in meteobridge W/m2
11:44 68.4 °F 63.7 °F 30.17 in Calm     85% 0.00 in meteobridge W/m2
11:49 68.7 °F 63.7 °F 30.17 in Calm     84% 0.00 in meteobridge W/m2
11:54 69.1 °F 64.0 °F 30.17 in Calm     84% 0.00 in meteobridge W/m2
11:59 69.1 °F 64.0 °F 30.17 in Calm     84% 0.00 in meteobridge W/m2
12:04 69.3 °F 63.9 °F 30.17 in Calm     83% 0.00 in meteobridge W/m2
12:09 69.6 °F 64.6 °F 30.16 in Calm     84% 0.00 in meteobridge W/m2
12:14 70.0 °F 63.5 °F 30.16 in Calm     80% 0.00 in meteobridge W/m2
12:19 70.3 °F 62.8 °F 30.16 in Calm     77% 0.00 in meteobridge W/m2
12:24 71.1 °F 63.5 °F 30.16 in Calm     77% 0.00 in meteobridge W/m2
12:29 71.6 °F 63.3 °F 30.16 in Calm     75% 0.00 in meteobridge W/m2
12:34 72.1 °F 63.9 °F 30.16 in Calm     75% 0.00 in meteobridge W/m2
12:39 72.7 °F 63.5 °F 30.16 in Calm     73% 0.00 in meteobridge W/m2
12:44 73.2 °F 63.3 °F 30.16 in Calm     71% 0.00 in meteobridge W/m2
12:49 73.8 °F 63.7 °F 30.16 in Calm     71% 0.00 in meteobridge W/m2
12:54 74.1 °F 63.3 °F 30.16 in Calm     69% 0.00 in meteobridge W/m2
12:59 74.7 °F 63.0 °F 30.16 in Calm     67% 0.00 in meteobridge W/m2
13:04 74.8 °F 62.2 °F 30.15 in Calm     65% 0.00 in meteobridge W/m2
13:09 74.8 °F 61.3 °F 30.16 in Calm     63% 0.00 in meteobridge W/m2
13:14 75.0 °F 61.2 °F 30.15 in Calm     62% 0.00 in meteobridge W/m2
13:19 75.0 °F 61.2 °F 30.15 in Calm     62% 0.00 in meteobridge W/m2
13:24 75.4 °F 61.5 °F 30.16 in Calm     62% 0.00 in meteobridge W/m2
13:29 75.4 °F 61.5 °F 30.16 in Calm     62% 0.00 in meteobridge W/m2
13:34 75.2 °F 61.7 °F 30.16 in Calm     63% 0.00 in meteobridge W/m2
13:39 75.0 °F 61.5 °F 30.16 in Calm     63% 0.00 in meteobridge W/m2
13:44 75.2 °F 60.4 °F 30.15 in Calm     60% 0.00 in meteobridge W/m2
13:49 75.0 °F 60.3 °F 30.15 in Calm     60% 0.00 in meteobridge W/m2
13:54 75.4 °F 61.9 °F 30.15 in Calm     63% 0.00 in meteobridge W/m2
13:59 75.7 °F 60.4 °F 30.15 in Calm     59% 0.00 in meteobridge W/m2
14:04 76.3 °F 61.0 °F 30.15 in Calm     59% 0.00 in meteobridge W/m2
14:09 75.9 °F 61.0 °F 30.16 in Calm     60% 0.00 in meteobridge W/m2
14:14 75.4 °F 61.9 °F 30.15 in Calm     63% 0.00 in meteobridge W/m2
14:19 74.8 °F 61.3 °F 30.15 in ESE 4.0 mph 4.0 mph 63% 0.00 in meteobridge W/m2
14:24 74.7 °F 61.2 °F 30.15 in East 2.0 mph 2.0 mph 63% 0.00 in meteobridge W/m2
14:29 75.0 °F 61.5 °F 30.14 in ESE 4.9 mph 6.0 mph 63% 0.00 in meteobridge W/m2
14:34 75.0 °F 62.1 °F 30.14 in SE 2.0 mph 2.0 mph 64% 0.00 in meteobridge W/m2
14:39 75.0 °F 61.5 °F 30.14 in SE 0.9 mph 4.0 mph 63% 0.00 in meteobridge W/m2
14:44 75.4 °F 62.4 °F 30.13 in Calm   2.0 mph 64% 0.00 in meteobridge W/m2
14:49 75.6 °F 62.6 °F 30.13 in Calm     64% 0.00 in meteobridge W/m2
14:54 75.9 °F 62.4 °F 30.13 in East 2.0 mph 4.0 mph 63% 0.00 in meteobridge W/m2
14:59 76.3 °F 62.2 °F 30.13 in Calm   2.0 mph 62% 0.00 in meteobridge W/m2
15:04 76.3 °F 62.2 °F 30.13 in Calm   1.0 mph 62% 0.00 in meteobridge W/m2
15:09 76.1 °F 62.1 °F 30.13 in Calm   1.0 mph 62% 0.00 in meteobridge W/m2
15:14 75.7 °F 61.9 °F 30.13 in Calm     62% 0.00 in meteobridge W/m2
15:19 75.4 °F 61.9 °F 30.12 in Calm   1.0 mph 63% 0.00 in meteobridge W/m2
15:24 75.4 °F 63.1 °F 30.11 in Calm     66% 0.00 in meteobridge W/m2
15:29 75.2 °F 61.7 °F 30.11 in Calm   4.0 mph 63% 0.00 in meteobridge W/m2
15:34 75.4 °F 62.4 °F 30.11 in Calm     64% 0.00 in meteobridge W/m2
15:39 75.6 °F 61.7 °F 30.11 in Calm   1.0 mph 62% 0.00 in meteobridge W/m2
15:44 75.7 °F 62.8 °F 30.11 in Calm   2.0 mph 64% 0.00 in meteobridge W/m2
15:49 75.7 °F 62.8 °F 30.11 in Calm     64% 0.00 in meteobridge W/m2
15:54 75.6 °F 63.0 °F 30.10 in Calm   2.0 mph 65% 0.00 in meteobridge W/m2
15:59 75.4 °F 61.9 °F 30.10 in Calm   6.0 mph 63% 0.00 in meteobridge W/m2
16:04 75.4 °F 62.8 °F 30.10 in Calm     65% 0.00 in meteobridge W/m2
16:09 75.2 °F 62.6 °F 30.11 in Calm     65% 0.00 in meteobridge W/m2
16:14 75.2 °F 62.6 °F 30.11 in Calm     65% 0.00 in meteobridge W/m2
16:19 75.2 °F 62.2 °F 30.10 in Calm   1.0 mph 64% 0.00 in meteobridge W/m2
16:24 75.4 °F 63.1 °F 30.10 in Calm     66% 0.00 in meteobridge W/m2
16:29 75.6 °F 62.6 °F 30.10 in Calm     64% 0.00 in meteobridge W/m2
16:34 75.6 °F 62.1 °F 30.10 in Calm     63% 0.00 in meteobridge W/m2
16:39 75.7 °F 62.2 °F 30.10 in Calm     63% 0.00 in meteobridge W/m2
16:44 75.7 °F 61.9 °F 30.11 in Calm     62% 0.00 in meteobridge W/m2
16:49 75.7 °F 61.9 °F 30.11 in Calm     62% 0.00 in meteobridge W/m2
16:54 75.7 °F 61.3 °F 30.11 in Calm     61% 0.00 in meteobridge W/m2
16:59 75.7 °F 62.2 °F 30.10 in Calm     63% 0.00 in meteobridge W/m2
17:04 75.7 °F 62.8 °F 30.10 in Calm     64% 0.00 in meteobridge W/m2
17:09 75.9 °F 61.9 °F 30.10 in Calm     62% 0.00 in meteobridge W/m2
17:14 75.9 °F 61.9 °F 30.10 in Calm   1.0 mph 62% 0.00 in meteobridge W/m2
17:19 75.7 °F 61.9 °F 30.10 in Calm   1.0 mph 62% 0.00 in meteobridge W/m2
17:24 75.7 °F 61.9 °F 30.10 in ESE 0.9 mph 2.0 mph 62% 0.00 in meteobridge W/m2
17:29 75.7 °F 62.2 °F 30.10 in Calm   1.0 mph 63% 0.00 in meteobridge W/m2
17:34 75.6 °F 61.7 °F 30.09 in Calm     62% 0.00 in meteobridge W/m2
17:39 75.7 °F 61.9 °F 30.09 in Calm     62% 0.00 in meteobridge W/m2
17:44 75.7 °F 61.9 °F 30.09 in East 2.0 mph 2.0 mph 62% 0.00 in meteobridge W/m2
17:49 75.6 °F 61.7 °F 30.09 in Calm   1.0 mph 62% 0.00 in meteobridge W/m2
17:54 75.4 °F 61.5 °F 30.09 in Calm   2.0 mph 62% 0.00 in meteobridge W/m2
17:59 75.4 °F 61.9 °F 30.09 in Calm     63% 0.00 in meteobridge W/m2
18:04 75.0 °F 61.2 °F 30.08 in East 4.0 mph 4.0 mph 62% 0.00 in meteobridge W/m2
18:09 75.0 °F 61.5 °F 30.08 in Calm   1.0 mph 63% 0.00 in meteobridge W/m2
18:14 75.2 °F 61.7 °F 30.08 in Calm     63% 0.00 in meteobridge W/m2
18:19 75.4 °F 61.9 °F 30.08 in Calm     63% 0.00 in meteobridge W/m2
18:24 75.6 °F 61.7 °F 30.07 in Calm   1.0 mph 62% 0.00 in meteobridge W/m2
18:29 75.6 °F 61.2 °F 30.07 in Calm     61% 0.00 in meteobridge W/m2
18:34 75.6 °F 61.7 °F 30.07 in Calm     62% 0.00 in meteobridge W/m2
18:39 75.6 °F 61.7 °F 30.07 in Calm   4.0 mph 62% 0.00 in meteobridge W/m2
18:44 75.6 °F 61.7 °F 30.07 in Calm   1.0 mph 62% 0.00 in meteobridge W/m2
18:49 75.4 °F 61.9 °F 30.07 in ESE 0.9 mph 1.0 mph 63% 0.00 in meteobridge W/m2
18:54 75.0 °F 61.5 °F 30.07 in Calm     63% 0.00 in meteobridge W/m2
18:59 74.8 °F 61.3 °F 30.07 in Calm     63% 0.00 in meteobridge W/m2
19:04 74.8 °F 61.3 °F 30.06 in Calm     63% 0.00 in meteobridge W/m2
19:09 74.7 °F 61.2 °F 30.06 in Calm     63% 0.00 in meteobridge W/m2
19:14 74.3 °F 61.3 °F 30.07 in Calm     64% 0.00 in meteobridge W/m2
19:19 74.1 °F 61.5 °F 30.07 in Calm     65% 0.00 in meteobridge W/m2
19:24 73.9 °F 61.3 °F 30.07 in Calm     65% 0.00 in meteobridge W/m2
19:29 73.8 °F 61.7 °F 30.07 in Calm   1.0 mph 66% 0.00 in meteobridge W/m2
19:34 73.6 °F 61.5 °F 30.07 in Calm     66% 0.00 in meteobridge W/m2
19:39 73.2 °F 62.1 °F 30.07 in Calm     68% 0.00 in meteobridge W/m2
19:44 72.9 °F 61.7 °F 30.07 in Calm     68% 0.00 in meteobridge W/m2
19:49 72.7 °F 61.9 °F 30.07 in Calm     69% 0.00 in meteobridge W/m2
19:54 72.1 °F 62.2 °F 30.07 in Calm     71% 0.00 in meteobridge W/m2
19:59 72.0 °F 62.1 °F 30.07 in Calm     71% 0.00 in meteobridge W/m2
20:04 71.4 °F 61.9 °F 30.07 in Calm     72% 0.00 in meteobridge W/m2
20:09 71.1 °F 61.9 °F 30.08 in Calm     73% 0.00 in meteobridge W/m2
20:14 70.5 °F 61.9 °F 30.08 in Calm     74% 0.00 in meteobridge W/m2
20:19 70.3 °F 62.1 °F 30.08 in Calm     75% 0.00 in meteobridge W/m2
20:24 69.6 °F 61.7 °F 30.09 in Calm     76% 0.00 in meteobridge W/m2
20:29 69.4 °F 61.9 °F 30.09 in Calm     77% 0.00 in meteobridge W/m2
20:34 69.1 °F 61.5 °F 30.09 in Calm     77% 0.00 in meteobridge W/m2
20:39 68.7 °F 61.5 °F 30.09 in Calm     78% 0.00 in meteobridge W/m2
20:44 68.5 °F 61.7 °F 30.10 in Calm     79% 0.00 in meteobridge W/m2
20:49 68.2 °F 61.3 °F 30.10 in Calm     79% 0.00 in meteobridge W/m2
20:54 67.8 °F 61.7 °F 30.10 in Calm     81% 0.00 in meteobridge W/m2
20:59 67.5 °F 61.3 °F 30.10 in Calm     81% 0.00 in meteobridge W/m2
21:04 67.1 °F 61.3 °F 30.10 in Calm     82% 0.00 in meteobridge W/m2
21:09 66.7 °F 61.3 °F 30.10 in Calm     83% 0.00 in meteobridge W/m2
21:14 66.4 °F 61.0 °F 30.10 in Calm     83% 0.00 in meteobridge W/m2
21:19 66.0 °F 61.3 °F 30.10 in Calm     85% 0.00 in meteobridge W/m2
21:24 65.8 °F 61.2 °F 30.11 in Calm     85% 0.00 in meteobridge W/m2
21:29 65.7 °F 61.3 °F 30.11 in Calm     86% 0.00 in meteobridge W/m2
21:34 65.3 °F 61.0 °F 30.11 in Calm     86% 0.00 in meteobridge W/m2
21:39 64.9 °F 60.6 °F 30.11 in Calm     86% 0.00 in meteobridge W/m2
21:44 64.8 °F 60.8 °F 30.12 in Calm     87% 0.00 in meteobridge W/m2
21:49 64.8 °F 60.8 °F 30.12 in Calm     87% 0.00 in meteobridge W/m2
21:54 64.6 °F 61.0 °F 30.13 in Calm     88% 0.00 in meteobridge W/m2
21:59 64.2 °F 60.6 °F 30.13 in Calm     88% 0.00 in meteobridge W/m2
22:04 64.0 °F 60.4 °F 30.13 in Calm     88% 0.00 in meteobridge W/m2
22:09 63.9 °F 60.6 °F 30.12 in Calm     89% 0.00 in meteobridge W/m2
22:14 63.7 °F 60.4 °F 30.12 in Calm     89% 0.00 in meteobridge W/m2
22:19 63.5 °F 60.3 °F 30.11 in Calm     89% 0.00 in meteobridge W/m2
22:24 63.3 °F 60.3 °F 30.11 in Calm     90% 0.00 in meteobridge W/m2
22:29 63.1 °F 60.1 °F 30.11 in Calm     90% 0.00 in meteobridge W/m2
22:34 63.0 °F 59.9 °F 30.11 in Calm     90% 0.00 in meteobridge W/m2
22:39 62.8 °F 59.7 °F 30.11 in Calm     90% 0.00 in meteobridge W/m2
22:44 62.6 °F 59.9 °F 30.11 in Calm     91% 0.00 in meteobridge W/m2
22:49 62.4 °F 59.7 °F 30.10 in Calm     91% 0.00 in meteobridge W/m2
22:54 62.2 °F 59.5 °F 30.11 in Calm     91% 0.00 in meteobridge W/m2
22:59 62.2 °F 59.5 °F 30.11 in Calm     91% 0.00 in meteobridge W/m2
23:04 62.1 °F 59.4 °F 30.11 in Calm     91% 0.00 in meteobridge W/m2
23:09 62.1 °F 59.7 °F 30.11 in Calm     92% 0.00 in meteobridge W/m2
23:14 61.9 °F 59.5 °F 30.10 in Calm     92% 0.00 in meteobridge W/m2
23:19 61.5 °F 59.5 °F 30.10 in Calm     93% 0.00 in meteobridge W/m2
23:24 61.5 °F 59.5 °F 30.10 in Calm     93% 0.00 in meteobridge W/m2
23:29 61.3 °F 59.4 °F 30.10 in Calm     93% 0.00 in meteobridge W/m2
23:34 61.2 °F 59.2 °F 30.11 in Calm     93% 0.00 in meteobridge W/m2
23:39 61.2 °F 59.2 °F 30.11 in Calm     93% 0.00 in meteobridge W/m2
23:44 61.0 °F 59.0 °F 30.11 in Calm     93% 0.00 in meteobridge W/m2
23:49 61.0 °F 59.0 °F 30.11 in Calm     93% 0.00 in meteobridge W/m2
23:54 60.6 °F 58.6 °F 30.11 in Calm     93% 0.00 in meteobridge W/m2
23:59 60.6 °F 58.8 °F 30.12 in Calm     94% 0.00 in meteobridge W/m2
EllijayWeather
Compliments of Weather Underground - 2.5 mb